This is the latest recevied weather packets stored in our database for station/object PU5BHV. If no packets are shown the sender has not sent any weather packets the latest 1 day(s).
| Time | Temp. | Humidity | Pressure | Rain* | Wind** | Luminosity | Snow |
|---|---|---|---|---|---|---|---|
| 1777984736 | 23.33° C | 80% | 1021.3 hPa | 0 mm | 0 m/s | 427 W/m² | - |
| 1777984433 | 22.78° C | 79% | 1021.3 hPa | 0 mm | 0 m/s | 431 W/m² | - |
| 1777984129 | 22.78° C | 79% | 1021.4 hPa | 0 mm | 0.45 m/s, 45° | 403 W/m² | - |
| 1777983826 | 22.78° C | 80% | 1021.4 hPa | 0 mm | 0 m/s | 392 W/m² | - |
| 1777983523 | 21.67° C | 82% | 1021.2 hPa | 0 mm | 0.45 m/s, 30° | 362 W/m² | - |
| 1777983220 | 22.22° C | 81% | 1021.2 hPa | 0 mm | 0.89 m/s, 98° | 333 W/m² | - |
| 1777982916 | 21.67° C | 82% | 1021.2 hPa | 0 mm | 0 m/s | 321 W/m² | - |
| 1777982612 | 21.67° C | 82% | 1021.2 hPa | 0 mm | 0.45 m/s, 68° | 254 W/m² | - |
| 1777982311 | 22.22° C | 79% | 1021.2 hPa | 0 mm | 1.34 m/s, 158° | 291 W/m² | - |
| 1777982008 | 21.67° C | 81% | 1021 hPa | 0 mm | 0.45 m/s, 120° | 267 W/m² | - |
| 1777981706 | 21.11° C | 83% | 1021 hPa | 0 mm | 0.45 m/s, 72° | 227 W/m² | - |
| 1777981402 | 20.56° C | 86% | 1021.3 hPa | 0 mm | 0 m/s | 253 W/m² | - |
| 1777981099 | 20° C | 88% | 1021.1 hPa | 0 mm | 0 m/s | 106 W/m² | - |
| 1777980795 | 20.56° C | 87% | 1020.9 hPa | 0 mm | 0 m/s | 120 W/m² | - |
| 1777980491 | 20° C | 88% | 1020.8 hPa | 0 mm | 0 m/s | 103 W/m² | - |
| 1777980189 | 20° C | 88% | 1020.8 hPa | 0 mm | 0 m/s | 110 W/m² | - |
| 1777979884 | 20.56° C | 87% | 1021 hPa | 0 mm | 0 m/s | 103 W/m² | - |
| 1777979580 | 20.56° C | 87% | 1020.9 hPa | 0 mm | 0 m/s | 104 W/m² | - |
| 1777979276 | 20.56° C | 89% | 1020.8 hPa | 0 mm | 0.45 m/s, 184° | 127 W/m² | - |
| 1777978974 | 19.44° C | 92% | 1020.6 hPa | 0 mm | 0 m/s | 107 W/m² | - |
| 1777978670 | 18.89° C | 96% | 1020.8 hPa | 0 mm | 0 m/s | 101 W/m² | - |
| 1777978366 | 18.33° C | 99% | 1020.8 hPa | 0 mm | 0 m/s | 76 W/m² | - |
| 1777978063 | 17.78° C | 99% | 1020.7 hPa | 0 mm | 0 m/s | 79 W/m² | - |
| 1777977760 | 17.78° C | 99% | 1020.7 hPa | 0 mm | 0 m/s | 58 W/m² | - |
| 1777977456 | 17.78° C | 99% | 1020.7 hPa | 0 mm | 0 m/s | 53 W/m² | - |
* Rain latest hour (hover to see other rain measurements)
** Current wind speed in m/s (hover to see current wind gust speed)